Time;durP1;ratioP1;P1;durP2;ratioP2;P2;SDS_P1;SDS_P2;PMS_P1;PMS_P2;Temp;Humidity;BMP_temperature;BMP_pressure;BME280_temperature;BME280_humidity;BME280_pressure;Samples;Min_cycle;Max_cycle;Signal;HPM_P1;HPM_P2
2023/09/01 00:00:41;;;;;;;5.15;2.88;;;11.30;99.90;;;;;;5044990;28;20076;-75
2023/09/01 00:03:07;;;;;;;7.70;2.92;;;11.20;99.90;;;;;;5045591;28;20040;-76
2023/09/01 00:05:34;;;;;;;5.70;3.28;;;11.20;99.90;;;;;;5042128;28;20049;-75
2023/09/01 00:07:59;;;;;;;5.43;3.67;;;11.20;99.90;;;;;;5045025;28;20053;-76
2023/09/01 00:10:25;;;;;;;4.25;3.35;;;11.20;99.90;;;;;;5058016;28;20044;-76
2023/09/01 00:12:51;;;;;;;5.05;3.42;;;11.30;99.90;;;;;;5058581;28;20599;-76
2023/09/01 00:15:17;;;;;;;5.47;3.25;;;11.20;99.90;;;;;;5056514;28;20280;-76
2023/09/01 00:17:43;;;;;;;7.68;3.70;;;11.20;99.90;;;;;;5042473;28;20562;-76
2023/09/01 00:20:09;;;;;;;5.18;3.20;;;11.20;99.90;;;;;;5050829;28;20046;-76
2023/09/01 00:22:38;;;;;;;5.47;3.45;;;11.20;99.90;;;;;;5059820;28;20101;-76
2023/09/01 00:25:05;;;;;;;5.30;3.00;;;11.10;99.90;;;;;;5076701;28;20060;-75
2023/09/01 00:27:30;;;;;;;5.72;3.08;;;11.10;99.90;;;;;;5040439;28;20309;-76
2023/09/01 00:29:56;;;;;;;6.50;3.40;;;11.10;99.90;;;;;;5062857;28;20407;-76
2023/09/01 00:32:22;;;;;;;7.35;4.55;;;11.10;99.90;;;;;;5058183;28;20044;-76
2023/09/01 00:34:58;;;;;;;6.57;3.63;;;11.10;99.90;;;;;;5055311;28;20508;-76
2023/09/01 00:37:24;;;;;;;7.28;3.58;;;11.10;99.90;;;;;;5056881;28;20049;-75
2023/09/01 00:39:50;;;;;;;3.42;2.38;;;11.00;99.90;;;;;;5071768;28;20055;-76
2023/09/01 00:42:16;;;;;;;3.40;2.97;;;11.00;99.90;;;;;;5054446;28;20033;-75
2023/09/01 00:44:41;;;;;;;4.95;2.85;;;11.00;99.90;;;;;;5056151;28;20047;-76
2023/09/01 00:47:07;;;;;;;6.72;3.80;;;11.00;99.90;;;;;;5038144;28;20127;-76
2023/09/01 00:49:36;;;;;;;6.10;3.88;;;11.00;99.90;;;;;;5057759;28;20110;-76
2023/09/01 00:52:02;;;;;;;5.82;3.80;;;11.00;99.90;;;;;;5053407;28;20059;-76
2023/09/01 00:54:31;;;;;;;8.43;4.80;;;11.10;99.90;;;;;;5056545;28;20040;-76
2023/09/01 00:56:57;;;;;;;7.43;5.70;;;11.00;99.90;;;;;;5051541;28;20041;-76
2023/09/01 00:59:24;;;;;;;6.82;4.95;;;11.10;99.90;;;;;;5071877;28;20048;-76
2023/09/01 01:01:51;;;;;;;8.07;5.05;;;11.10;99.90;;;;;;5061706;28;20209;-76
2023/09/01 01:04:20;;;;;;;8.05;5.78;;;11.10;99.90;;;;;;5064312;28;20454;-78
2023/09/01 01:07:10;;;;;;;7.70;5.85;;;11.10;99.90;;;;;;5051214;28;20132;-78
2023/09/01 01:10:17;;;;;;;9.38;6.60;;;11.10;99.90;;;;;;5062754;28;20059;-77
2023/09/01 01:12:59;;;;;;;7.82;6.45;;;11.10;99.90;;;;;;5096373;27;20043;-78
2023/09/01 01:15:26;;;;;;;10.15;6.88;;;11.00;99.90;;;;;;5075945;28;20044;-77
2023/09/01 01:17:56;;;;;;;8.60;6.93;;;11.00;99.90;;;;;;5061623;28;20494;-77
2023/09/01 01:20:35;;;;;;;8.30;6.68;;;11.00;99.90;;;;;;5036731;28;20522;-77
2023/09/01 01:23:06;;;;;;;9.55;7.32;;;11.00;99.90;;;;;;5036287;28;20052;-76
2023/09/01 01:25:32;;;;;;;9.13;7.35;;;11.00;99.90;;;;;;5058932;28;20032;-76
2023/09/01 01:28:05;;;;;;;8.30;7.20;;;11.00;99.90;;;;;;5046718;28;20101;-77
2023/09/01 01:30:34;;;;;;;9.18;7.80;;;10.90;99.90;;;;;;5053941;28;20073;-77
2023/09/01 01:33:00;;;;;;;10.27;7.35;;;11.00;99.90;;;;;;5061156;28;20402;-76
2023/09/01 01:35:29;;;;;;;9.13;7.47;;;11.00;99.90;;;;;;5061677;28;20053;-77
2023/09/01 01:38:13;;;;;;;9.15;7.07;;;11.00;99.90;;;;;;5059543;28;20051;-77
2023/09/01 01:40:43;;;;;;;8.70;7.28;;;11.00;99.90;;;;;;5061238;28;20046;-77
2023/09/01 01:43:10;;;;;;;7.30;5.47;;;11.00;99.90;;;;;;5059819;28;20047;-76
2023/09/01 01:45:41;;;;;;;7.40;6.15;;;11.00;99.90;;;;;;5064043;28;20036;-77
2023/09/01 01:48:07;;;;;;;;;;;11.00;99.90;;;;;;5058533;28;20759;-76
2023/09/01 01:50:33;;;;;;;10.60;6.57;;;10.90;99.90;;;;;;5059624;28;20027;-76
2023/09/01 01:52:59;;;;;;;9.73;5.70;;;10.90;99.90;;;;;;5064148;28;20040;-76
2023/09/01 01:55:25;;;;;;;6.75;5.57;;;10.90;99.90;;;;;;5061077;28;20116;-76
2023/09/01 01:57:51;;;;;;;7.43;6.10;;;10.90;99.90;;;;;;5063914;28;20671;-76
2023/09/01 02:00:18;;;;;;;8.95;7.28;;;10.90;99.90;;;;;;5058862;28;20056;-76
2023/09/01 02:02:44;;;;;;;6.82;5.95;;;11.00;99.90;;;;;;5057919;28;20036;-77
2023/09/01 02:05:13;;;;;;;7.53;6.80;;;11.00;99.90;;;;;;5066623;28;20059;-77
2023/09/01 02:07:39;;;;;;;9.80;7.60;;;11.00;99.90;;;;;;5063934;28;20673;-77
2023/09/01 02:10:05;;;;;;;9.10;7.38;;;11.10;99.90;;;;;;5066583;28;20048;-77
2023/09/01 02:12:33;;;;;;;10.63;7.72;;;11.10;99.90;;;;;;5066235;28;20670;-77
2023/09/01 02:15:00;;;;;;;11.75;7.82;;;11.10;99.90;;;;;;5046806;28;20524;-77
2023/09/01 02:17:25;;;;;;;8.65;7.72;;;11.10;99.90;;;;;;5061099;28;20185;-77
2023/09/01 02:19:51;;;;;;;11.63;8.90;;;11.10;99.90;;;;;;5056068;28;20119;-76
2023/09/01 02:22:17;;;;;;;11.60;8.77;;;11.20;99.90;;;;;;5058644;28;20419;-77
2023/09/01 02:24:42;;;;;;;12.15;7.43;;;11.20;99.90;;;;;;5061523;28;20039;-74
2023/09/01 02:27:08;;;;;;;10.18;7.30;;;11.20;99.90;;;;;;5042242;28;20044;-76
2023/09/01 02:29:35;;;;;;;8.70;7.40;;;11.10;99.90;;;;;;5052350;28;20106;-76
2023/09/01 02:32:03;;;;;;;7.40;6.32;;;11.20;99.90;;;;;;5060040;28;20494;-76
2023/09/01 02:34:29;;;;;;;9.65;6.30;;;11.10;99.90;;;;;;5042900;28;20040;-76
2023/09/01 02:36:55;;;;;;;8.20;5.78;;;11.10;99.90;;;;;;5052030;28;20063;-77
2023/09/01 02:39:21;;;;;;;9.18;5.90;;;11.00;99.90;;;;;;5046563;28;20056;-76
2023/09/01 02:41:46;;;;;;;7.00;5.13;;;11.00;99.90;;;;;;5060586;28;20041;-77
2023/09/01 02:44:12;;;;;;;7.65;5.50;;;11.00;99.90;;;;;;5063532;28;20045;-76
2023/09/01 02:46:38;;;;;;;6.25;5.07;;;11.00;99.90;;;;;;5041868;28;20060;-77
2023/09/01 02:49:04;;;;;;;7.43;5.47;;;11.00;99.90;;;;;;5037549;28;20329;-76
2023/09/01 02:51:30;;;;;;;6.88;5.53;;;11.00;99.90;;;;;;5061431;28;20049;-77
2023/09/01 02:53:56;;;;;;;9.98;7.22;;;11.00;99.90;;;;;;5051818;28;21192;-76
2023/09/01 02:56:21;;;;;;;9.23;5.68;;;11.10;99.90;;;;;;5053415;28;20107;-76
2023/09/01 02:58:47;;;;;;;10.60;7.80;;;11.10;99.90;;;;;;5048650;28;20036;-78
2023/09/01 03:01:13;;;;;;;10.75;7.93;;;11.10;99.90;;;;;;5061347;28;20067;-77
2023/09/01 03:03:41;;;;;;;9.43;6.43;;;11.00;99.90;;;;;;5055728;28;20167;-76
2023/09/01 03:06:08;;;;;;;6.30;5.28;;;11.00;99.90;;;;;;5060469;28;20562;-77
2023/09/01 03:08:40;;;;;;;6.78;6.03;;;11.10;99.90;;;;;;5045120;28;20328;-77
2023/09/01 03:11:06;;;;;;;7.72;6.55;;;11.10;99.90;;;;;;5101693;27;20472;-76
2023/09/01 03:13:31;;;;;;;9.27;7.82;;;11.10;99.90;;;;;;5062697;28;20115;-75
2023/09/01 03:15:57;;;;;;;8.90;7.57;;;11.10;99.90;;;;;;5060815;28;20106;-76
2023/09/01 03:18:24;;;;;;;9.65;7.75;;;11.10;99.90;;;;;;5064262;28;20106;-76
2023/09/01 03:20:53;;;;;;;9.02;7.07;;;11.20;99.90;;;;;;5047374;28;20069;-76
2023/09/01 03:23:20;;;;;;;9.07;7.50;;;11.20;99.90;;;;;;5057772;28;20060;-76
2023/09/01 03:25:53;;;;;;;10.05;7.85;;;11.20;99.90;;;;;;5047366;28;20435;-76
2023/09/01 03:28:19;;;;;;;11.52;8.63;;;11.20;99.90;;;;;;5062935;28;20464;-76
2023/09/01 03:30:47;;;;;;;13.43;8.98;;;11.20;99.90;;;;;;5065850;28;20040;-77
2023/09/01 03:33:13;;;;;;;9.50;7.82;;;11.20;99.90;;;;;;5048879;28;20045;-76
2023/09/01 03:35:39;;;;;;;10.68;8.15;;;11.20;99.90;;;;;;5056749;28;20044;-76
2023/09/01 03:38:05;;;;;;;9.18;7.55;;;11.20;99.90;;;;;;5045471;28;20048;-76
2023/09/01 03:40:31;;;;;;;8.35;7.03;;;11.20;99.90;;;;;;5050095;28;20376;-77
2023/09/01 03:42:57;;;;;;;6.85;5.97;;;11.10;99.90;;;;;;5063499;28;20040;-76
2023/09/01 03:45:23;;;;;;;7.53;6.00;;;11.10;99.90;;;;;;5042866;28;20468;-76
2023/09/01 03:47:48;;;;;;;6.78;5.68;;;11.00;99.90;;;;;;5063542;28;20056;-76
2023/09/01 03:50:14;;;;;;;7.78;5.40;;;11.00;99.90;;;;;;5049319;28;20048;-76
2023/09/01 03:52:43;;;;;;;7.07;5.30;;;10.90;99.90;;;;;;5068746;28;20086;-77
2023/09/01 03:55:08;;;;;;;16.02;8.25;;;10.90;99.90;;;;;;5065475;28;20113;-76
2023/09/01 03:57:34;;;;;;;8.68;5.82;;;10.90;99.90;;;;;;5046031;28;20028;-77
2023/09/01 04:00:00;;;;;;;6.93;5.25;;;10.80;99.90;;;;;;5063635;28;20462;-76
2023/09/01 04:02:26;;;;;;;9.00;6.18;;;10.80;99.90;;;;;;5052179;28;20656;-76
2023/09/01 04:04:51;;;;;;;7.25;5.43;;;10.80;99.90;;;;;;5038867;28;20040;-76
2023/09/01 04:07:17;;;;;;;7.82;5.15;;;10.80;99.90;;;;;;5062417;28;20498;-76
2023/09/01 04:09:43;;;;;;;6.43;5.55;;;10.80;99.90;;;;;;5057199;28;20136;-76
2023/09/01 04:12:08;;;;;;;8.65;7.63;;;10.80;99.90;;;;;;5053676;28;20094;-76
2023/09/01 04:14:34;;;;;;;7.88;6.60;;;10.80;99.90;;;;;;5052850;28;20944;-76
2023/09/01 04:17:00;;;;;;;8.50;6.65;;;10.80;99.90;;;;;;5054773;28;20070;-76
2023/09/01 04:19:26;;;;;;;8.63;7.53;;;10.70;99.90;;;;;;5044178;28;20048;-76
2023/09/01 04:21:54;;;;;;;11.50;8.63;;;10.70;99.90;;;;;;5046277;28;20429;-76
2023/09/01 04:24:20;;;;;;;10.63;8.88;;;10.70;99.90;;;;;;5050662;28;20158;-76
2023/09/01 04:26:46;;;;;;;9.32;8.32;;;10.70;99.90;;;;;;5058214;28;20148;-76
2023/09/01 04:29:11;;;;;;;10.07;9.05;;;10.70;99.90;;;;;;5039462;28;20090;-76
2023/09/01 04:31:38;;;;;;;7.53;6.82;;;10.70;99.90;;;;;;5052047;28;20044;-76
2023/09/01 04:34:03;;;;;;;9.60;6.72;;;10.70;99.90;;;;;;5059894;28;20576;-76
2023/09/01 04:36:29;;;;;;;7.60;6.80;;;10.70;99.90;;;;;;5043897;28;20084;-76
2023/09/01 04:38:55;;;;;;;9.32;7.38;;;10.80;99.90;;;;;;5060630;28;20033;-76
2023/09/01 04:41:20;;;;;;;11.02;7.78;;;10.80;99.90;;;;;;5047461;28;20079;-76
2023/09/01 04:43:46;;;;;;;9.35;7.93;;;10.80;99.90;;;;;;5058379;28;20053;-76
2023/09/01 04:46:12;;;;;;;9.27;8.27;;;10.80;99.90;;;;;;5047474;28;20463;-76
2023/09/01 04:48:41;;;;;;;8.63;7.70;;;10.80;99.90;;;;;;5071453;28;20426;-76
2023/09/01 04:51:07;;;;;;;10.23;9.00;;;10.80;99.90;;;;;;5079691;28;20399;-76
2023/09/01 04:53:32;;;;;;;10.63;8.88;;;10.80;99.90;;;;;;5051535;28;20104;-76
2023/09/01 04:55:58;;;;;;;13.98;8.95;;;10.80;99.90;;;;;;5038997;28;20047;-76
2023/09/01 04:58:24;;;;;;;11.88;9.50;;;10.80;99.90;;;;;;5061235;28;20048;-76
2023/09/01 05:00:54;;;;;;;9.35;8.40;;;10.80;99.90;;;;;;5041405;28;20033;-77
2023/09/01 05:03:20;;;;;;;12.85;8.82;;;10.80;99.90;;;;;;5056798;28;20376;-76
2023/09/01 05:05:47;;;;;;;12.18;9.82;;;10.80;99.90;;;;;;5074286;28;20042;-76
2023/09/01 05:08:13;;;;;;;11.25;10.07;;;10.80;99.90;;;;;;5058523;28;20400;-76
2023/09/01 05:10:38;;;;;;;10.82;9.65;;;10.80;99.90;;;;;;5058056;28;20036;-76
2023/09/01 05:13:04;;;;;;;13.10;10.98;;;10.80;99.90;;;;;;5043805;28;20488;-76
2023/09/01 05:15:30;;;;;;;11.15;10.05;;;10.80;99.90;;;;;;5060579;28;20045;-76
2023/09/01 05:17:56;;;;;;;11.52;10.13;;;10.80;99.90;;;;;;5041385;28;20464;-76
2023/09/01 05:20:22;;;;;;;13.20;11.02;;;10.90;99.90;;;;;;5044725;28;20048;-76
2023/09/01 05:22:48;;;;;;;12.77;11.27;;;10.90;99.90;;;;;;5056897;28;20048;-76
2023/09/01 05:25:14;;;;;;;14.50;11.30;;;11.00;99.90;;;;;;5043728;28;20110;-76
2023/09/01 05:27:40;;;;;;;13.85;10.20;;;11.00;99.90;;;;;;5041376;28;20044;-77
2023/09/01 05:30:07;;;;;;;13.73;11.23;;;11.10;99.90;;;;;;5042827;28;20123;-77
2023/09/01 05:32:34;;;;;;;12.55;10.85;;;11.10;99.90;;;;;;5041642;28;20040;-77
2023/09/01 05:34:59;;;;;;;12.85;11.55;;;11.20;99.90;;;;;;5041868;28;20039;-77
2023/09/01 05:37:26;;;;;;;11.50;10.30;;;11.20;99.90;;;;;;5043121;28;20495;-77
2023/09/01 05:39:56;;;;;;;12.95;8.82;;;11.20;99.90;;;;;;5059419;28;20482;-76
2023/09/01 05:42:22;;;;;;;11.77;9.93;;;11.20;99.90;;;;;;5057407;28;20403;-77
2023/09/01 05:44:47;;;;;;;14.07;10.05;;;11.20;99.90;;;;;;5043886;28;20048;-76
2023/09/01 05:47:13;;;;;;;11.57;9.25;;;11.30;99.90;;;;;;5054274;28;20040;-77
2023/09/01 05:49:39;;;;;;;11.40;9.13;;;11.30;99.90;;;;;;5042918;28;20105;-77
2023/09/01 05:52:05;;;;;;;13.18;10.05;;;11.40;99.90;;;;;;5040359;28;20060;-77
2023/09/01 05:54:31;;;;;;;9.98;8.70;;;11.30;99.90;;;;;;5056871;28;20402;-77
2023/09/01 05:56:56;;;;;;;10.60;8.73;;;11.40;99.90;;;;;;5058389;28;20033;-77
2023/09/01 05:59:22;;;;;;;9.15;8.15;;;11.40;99.90;;;;;;5042582;28;20076;-78
2023/09/01 06:01:48;;;;;;;10.00;8.75;;;11.50;99.90;;;;;;5058350;28;20052;-77
2023/09/01 06:04:14;;;;;;;9.70;8.80;;;11.50;99.90;;;;;;5090606;28;20084;-76
2023/09/01 06:06:40;;;;;;;10.73;8.60;;;11.60;99.90;;;;;;5058197;28;20075;-77
2023/09/01 06:09:07;;;;;;;11.10;7.63;;;11.60;99.90;;;;;;5059133;28;20048;-77
2023/09/01 06:11:34;;;;;;;12.43;8.00;;;11.70;99.90;;;;;;5059393;28;20071;-77
2023/09/01 06:14:02;;;;;;;12.18;8.45;;;11.70;99.90;;;;;;5042168;28;20044;-77
2023/09/01 06:16:28;;;;;;;10.75;8.57;;;11.80;99.90;;;;;;5058046;28;20068;-77
2023/09/01 06:18:55;;;;;;;10.10;7.82;;;11.80;99.90;;;;;;5057430;28;20047;-77
2023/09/01 06:21:21;;;;;;;10.25;7.70;;;11.90;99.90;;;;;;5058296;28;20140;-77
2023/09/01 06:23:48;;;;;;;11.43;8.25;;;11.90;99.90;;;;;;5058118;28;20116;-77
2023/09/01 06:26:15;;;;;;;8.60;7.70;;;11.90;99.90;;;;;;5057019;28;20064;-77
2023/09/01 06:28:41;;;;;;;10.20;8.10;;;12.00;99.90;;;;;;5053963;28;20474;-77
2023/09/01 06:31:09;;;;;;;12.55;9.15;;;12.00;99.90;;;;;;5041466;28;20041;-77
2023/09/01 06:33:35;;;;;;;11.73;9.82;;;12.10;99.90;;;;;;5041160;28;20036;-77
2023/09/01 06:36:02;;;;;;;14.98;10.93;;;12.20;99.90;;;;;;5057387;28;20037;-77
2023/09/01 06:38:27;;;;;;;14.85;11.57;;;12.20;99.90;;;;;;5054606;28;20048;-76
2023/09/01 06:40:53;;;;;;;15.70;12.32;;;12.30;99.90;;;;;;5042432;28;20036;-77
2023/09/01 06:43:19;;;;;;;18.95;15.85;;;12.40;99.90;;;;;;5057230;28;20044;-77
2023/09/01 06:45:45;;;;;;;15.48;13.88;;;12.40;99.90;;;;;;5042396;28;20456;-77
2023/09/01 06:48:14;;;;;;;17.38;15.57;;;12.40;99.90;;;;;;5037883;28;20341;-77
2023/09/01 06:50:43;;;;;;;17.10;15.30;;;12.50;99.90;;;;;;5036115;28;20503;-77
2023/09/01 06:53:08;;;;;;;17.25;15.45;;;12.50;99.90;;;;;;5049447;28;20088;-76
2023/09/01 06:55:34;;;;;;;17.60;14.68;;;12.60;99.90;;;;;;5037156;28;20052;-77
2023/09/01 06:58:00;;;;;;;15.90;14.20;;;12.60;99.90;;;;;;5040006;28;20048;-77
2023/09/01 07:00:26;;;;;;;16.77;15.02;;;12.80;99.90;;;;;;5038175;28;20052;-77
2023/09/01 07:02:51;;;;;;;14.93;13.52;;;12.90;99.90;;;;;;5061562;28;20033;-77
2023/09/01 07:05:17;;;;;;;16.25;14.07;;;12.90;99.90;;;;;;5065670;28;20151;-76
2023/09/01 07:07:43;;;;;;;15.27;13.63;;;13.00;99.90;;;;;;5062989;28;20045;-76
2023/09/01 07:10:09;;;;;;;16.30;14.52;;;13.10;99.90;;;;;;5061522;28;20072;-76
2023/09/01 07:12:35;;;;;;;14.48;12.93;;;13.20;99.90;;;;;;5039072;28;20083;-76
2023/09/01 07:15:03;;;;;;;14.50;13.00;;;13.30;99.90;;;;;;5058792;28;20076;-75
2023/09/01 07:17:29;;;;;;;14.00;11.85;;;13.40;99.90;;;;;;5044954;28;20198;-76
2023/09/01 07:19:55;;;;;;;13.40;12.05;;;13.50;99.90;;;;;;5056834;28;20119;-75
2023/09/01 07:22:21;;;;;;;15.80;13.10;;;13.70;99.90;;;;;;5038030;28;20136;-75
2023/09/01 07:24:46;;;;;;;15.63;13.50;;;13.80;99.90;;;;;;5061021;28;20127;-76
2023/09/01 07:27:12;;;;;;;13.23;11.82;;;13.90;99.90;;;;;;5048448;28;20044;-76
2023/09/01 07:29:38;;;;;;;16.67;14.68;;;14.00;99.90;;;;;;5065921;28;20036;-75
2023/09/01 07:32:04;;;;;;;15.02;13.55;;;14.10;99.90;;;;;;5058462;28;20044;-76
2023/09/01 07:34:30;;;;;;;16.60;14.88;;;14.20;99.90;;;;;;5048269;28;20402;-75
2023/09/01 07:36:56;;;;;;;15.80;14.00;;;14.30;99.90;;;;;;5056454;28;20032;-75
2023/09/01 07:39:21;;;;;;;17.40;14.63;;;14.30;99.90;;;;;;5054913;28;20139;-76
2023/09/01 07:41:47;;;;;;;15.88;14.30;;;14.40;99.90;;;;;;5057181;28;20084;-75
2023/09/01 07:44:16;;;;;;;15.00;13.50;;;14.50;99.90;;;;;;5046100;28;20230;-75
2023/09/01 07:46:45;;;;;;;15.35;13.85;;;14.60;99.90;;;;;;5062138;28;20100;-76
2023/09/01 07:49:11;;;;;;;13.73;12.43;;;14.70;99.90;;;;;;5065901;28;20036;-75
2023/09/01 07:51:38;;;;;;;14.70;13.15;;;14.80;99.90;;;;;;5044903;28;20101;-76
2023/09/01 07:54:04;;;;;;;13.00;11.57;;;14.80;99.90;;;;;;5047901;28;20039;-75
2023/09/01 07:56:32;;;;;;;13.43;11.93;;;14.90;99.90;;;;;;5064934;28;20480;-75
2023/09/01 07:58:58;;;;;;;13.40;12.00;;;14.90;99.90;;;;;;5054215;28;20076;-75
2023/09/01 08:01:23;;;;;;;12.43;10.40;;;14.90;99.90;;;;;;5051439;28;20072;-76
2023/09/01 08:03:49;;;;;;;13.88;10.73;;;15.00;99.90;;;;;;5068156;28;20071;-76
2023/09/01 08:06:15;;;;;;;10.38;9.27;;;15.10;99.90;;;;;;5058829;28;20076;-75
2023/09/01 08:08:41;;;;;;;11.00;8.73;;;15.10;99.90;;;;;;5067765;28;20079;-75
2023/09/01 08:11:07;;;;;;;11.02;8.90;;;15.20;99.90;;;;;;5057364;28;20480;-75
2023/09/01 08:13:33;;;;;;;10.23;9.02;;;15.20;99.90;;;;;;5069377;28;20513;-76
2023/09/01 08:15:59;;;;;;;10.40;7.15;;;15.30;99.90;;;;;;5067044;28;20439;-76
2023/09/01 08:18:25;;;;;;;6.90;5.43;;;15.40;99.90;;;;;;5055812;28;20089;-75
2023/09/01 08:20:51;;;;;;;9.82;5.93;;;15.50;99.90;;;;;;5043438;28;20033;-75
2023/09/01 08:23:21;;;;;;;7.32;5.60;;;15.60;99.90;;;;;;5060443;28;20088;-75
2023/09/01 08:25:48;;;;;;;7.97;5.47;;;15.60;99.90;;;;;;5047929;28;20582;-75
2023/09/01 08:28:16;;;;;;;8.75;5.07;;;15.70;99.90;;;;;;5064094;28;20087;-76
2023/09/01 08:30:42;;;;;;;6.10;3.80;;;15.70;99.90;;;;;;5061975;28;20040;-75
2023/09/01 08:33:08;;;;;;;6.47;3.53;;;15.70;99.90;;;;;;5047171;28;20040;-76
2023/09/01 08:35:34;;;;;;;5.28;3.40;;;15.80;99.90;;;;;;5057864;28;20376;-76
2023/09/01 08:38:03;;;;;;;5.38;2.97;;;15.80;99.90;;;;;;5060438;28;20842;-75
2023/09/01 08:40:29;;;;;;;5.63;2.88;;;15.80;99.90;;;;;;5059891;28;20621;-75
2023/09/01 08:42:57;;;;;;;4.97;2.83;;;15.90;99.90;;;;;;5064533;28;20123;-75
2023/09/01 08:45:23;;;;;;;6.35;2.63;;;16.00;99.90;;;;;;5067749;28;20085;-75
2023/09/01 08:47:51;;;;;;;4.97;2.38;;;16.00;99.90;;;;;;5046255;28;20044;-75
2023/09/01 08:50:18;;;;;;;6.88;2.85;;;16.00;99.90;;;;;;5062432;28;20056;-75
2023/09/01 08:52:45;;;;;;;5.78;2.08;;;16.10;99.90;;;;;;5046035;28;20041;-75
2023/09/01 08:55:16;;;;;;;7.25;2.58;;;16.10;99.90;;;;;;5065511;28;20449;-75
2023/09/01 08:57:48;;;;;;;4.07;2.58;;;16.20;99.90;;;;;;5068933;28;20538;-75
2023/09/01 09:00:15;;;;;;;6.60;2.38;;;16.20;99.90;;;;;;5068897;28;20568;-75
2023/09/01 09:02:42;;;;;;;5.72;2.60;;;16.30;99.90;;;;;;5088979;28;20044;-75
2023/09/01 09:05:11;;;;;;;5.55;2.85;;;16.30;99.90;;;;;;5062608;28;20036;-75
2023/09/01 09:07:37;;;;;;;7.72;3.13;;;16.40;99.90;;;;;;5057847;28;20040;-75
2023/09/01 09:10:06;;;;;;;6.82;3.25;;;16.40;99.90;;;;;;5093881;28;20044;-75
2023/09/01 09:12:41;;;;;;;4.95;3.25;;;16.50;99.90;;;;;;5042782;28;20055;-75
2023/09/01 09:15:08;;;;;;;6.15;3.30;;;16.50;99.90;;;;;;5059280;28;20056;-75
2023/09/01 09:17:46;;;;;;;7.45;3.92;;;16.60;99.90;;;;;;5060160;28;20032;-76
2023/09/01 09:20:17;;;;;;;6.53;4.10;;;16.70;99.90;;;;;;5059471;28;20052;-75
2023/09/01 09:22:52;;;;;;;7.45;5.32;;;16.70;99.90;;;;;;5045526;28;20438;-75
2023/09/01 09:25:33;;;;;;;9.50;6.28;;;16.80;99.90;;;;;;5072873;28;20056;-75
2023/09/01 09:28:20;;;;;;;7.55;5.90;;;17.00;99.90;;;;;;5101704;27;20510;-75
2023/09/01 09:30:49;;;;;;;8.57;6.57;;;17.10;99.90;;;;;;5061766;28;20410;-75
2023/09/01 09:33:27;;;;;;;8.85;4.72;;;17.20;99.90;;;;;;5051853;28;20048;-75
2023/09/01 09:35:53;;;;;;;7.72;5.18;;;17.20;99.90;;;;;;5057244;28;20049;-75
2023/09/01 09:38:19;;;;;;;8.57;4.05;;;17.30;99.90;;;;;;5067220;28;20522;-75
2023/09/01 09:40:58;;;;;;;8.43;4.35;;;17.30;99.90;;;;;;5056487;28;20057;-75
2023/09/01 09:43:24;;;;;;;8.02;5.22;;;17.30;99.90;;;;;;5050235;28;20048;-75
2023/09/01 09:45:54;;;;;;;8.02;5.03;;;17.30;99.90;;;;;;5059812;28;20044;-75
2023/09/01 09:48:20;;;;;;;7.60;4.00;;;17.30;99.90;;;;;;5051421;28;20134;-75
2023/09/01 09:50:53;;;;;;;9.45;5.97;;;17.40;99.90;;;;;;5053006;28;20132;-75
2023/09/01 09:53:25;;;;;;;8.98;4.57;;;17.40;99.90;;;;;;5056056;28;20510;-75
2023/09/01 09:55:52;;;;;;;8.93;5.80;;;17.50;99.90;;;;;;5055620;28;20037;-74
2023/09/01 09:58:21;;;;;;;8.48;6.28;;;17.50;99.90;;;;;;5052996;28;20110;-75
2023/09/01 10:00:54;;;;;;;10.20;6.45;;;17.60;99.90;;;;;;5046305;28;20155;-75
2023/09/01 10:03:24;;;;;;;9.57;5.90;;;17.70;99.90;;;;;;5058626;28;20103;-74
2023/09/01 10:05:51;;;;;;;10.05;6.80;;;17.80;99.90;;;;;;5036498;28;20503;-74
2023/09/01 10:08:21;;;;;;;11.38;7.15;;;17.80;99.90;;;;;;5040473;28;20136;-74
2023/09/01 10:10:49;;;;;;;;;;;17.80;99.90;;;;;;5051795;28;20233;-74
2023/09/01 10:13:15;;;;;;;11.68;7.60;;;17.80;99.90;;;;;;5084018;28;19989;-74
2023/09/01 10:15:42;;;;;;;12.50;7.63;;;17.80;99.90;;;;;;5055711;28;20152;-74
2023/09/01 10:18:09;;;;;;;11.20;7.00;;;17.90;99.90;;;;;;5045011;28;20064;-75
2023/09/01 10:20:43;;;;;;;12.43;8.70;;;17.80;99.90;;;;;;5053778;28;20059;-75
2023/09/01 10:23:11;;;;;;;12.35;8.63;;;17.90;99.90;;;;;;5036913;28;20434;-74
2023/09/01 10:25:37;;;;;;;15.68;9.77;;;17.90;99.90;;;;;;5090531;28;20055;-75
2023/09/01 10:28:13;;;;;;;14.75;10.43;;;17.90;99.90;;;;;;5051817;28;20352;-75
2023/09/01 10:30:44;;;;;;;11.57;8.18;;;17.80;99.90;;;;;;5056791;28;20568;-75
2023/09/01 10:33:25;;;;;;;14.10;9.07;;;17.80;99.90;;;;;;5040440;28;20068;-75
2023/09/01 10:35:53;;;;;;;14.15;9.80;;;17.80;99.90;;;;;;5048641;28;20045;-75
2023/09/01 10:38:20;;;;;;;12.50;11.20;;;17.80;99.90;;;;;;5047462;28;20052;-75
2023/09/01 10:40:54;;;;;;;11.75;10.35;;;17.80;99.90;;;;;;5053344;28;20041;-74
2023/09/01 10:43:35;;;;;;;11.77;9.88;;;17.90;99.90;;;;;;5042857;28;20060;-74
2023/09/01 10:46:24;;;;;;;15.40;11.48;;;17.90;99.90;;;;;;5035665;28;20105;-74
2023/09/01 10:49:00;;;;;;;14.27;12.70;;;17.90;99.90;;;;;;5043869;28;20053;-75
2023/09/01 10:51:28;;;;;;;16.85;12.70;;;17.90;99.90;;;;;;5035108;28;20045;-75
2023/09/01 10:54:01;;;;;;;15.38;12.48;;;17.90;99.90;;;;;;5056376;28;20037;-74
2023/09/01 10:56:33;;;;;;;15.23;12.75;;;18.00;99.90;;;;;;5089569;28;20059;-74
2023/09/01 10:58:59;;;;;;;15.57;12.65;;;18.10;99.90;;;;;;5052497;28;20093;-75
2023/09/01 11:01:38;;;;;;;16.40;13.80;;;18.00;99.90;;;;;;5046073;28;20056;-75
2023/09/01 11:04:28;;;;;;;18.03;14.47;;;18.00;99.90;;;;;;5048322;28;20048;-75
2023/09/01 11:06:59;;;;;;;16.23;13.63;;;18.10;99.90;;;;;;5034725;28;20307;-75
2023/09/01 11:09:34;;;;;;;15.82;12.90;;;18.00;99.90;;;;;;5056722;28;20164;-75
2023/09/01 11:12:00;;;;;;;15.90;13.88;;;18.10;99.90;;;;;;5057861;28;20401;-75
2023/09/01 11:14:26;;;;;;;18.02;14.48;;;18.10;99.90;;;;;;5061061;28;20040;-75
2023/09/01 11:16:52;;;;;;;15.68;13.90;;;18.10;99.90;;;;;;5053744;28;20045;-75
2023/09/01 11:19:17;;;;;;;16.00;14.30;;;18.10;99.90;;;;;;5040934;28;20076;-74
2023/09/01 11:21:45;;;;;;;16.25;14.00;;;18.10;99.90;;;;;;5041391;28;20041;-75
2023/09/01 11:24:11;;;;;;;17.13;13.63;;;18.20;99.90;;;;;;5057304;28;20490;-75
2023/09/01 11:26:38;;;;;;;14.57;12.45;;;18.20;99.90;;;;;;5049374;28;20107;-75
2023/09/01 11:29:16;;;;;;;14.32;12.10;;;18.30;99.90;;;;;;5043548;28;20045;-74
2023/09/01 11:31:42;;;;;;;14.52;11.63;;;18.40;99.90;;;;;;5076451;28;20207;-74
2023/09/01 11:34:09;;;;;;;13.75;12.35;;;18.50;99.90;;;;;;5054206;28;20040;-75
2023/09/01 11:36:45;;;;;;;14.88;13.02;;;18.60;99.90;;;;;;5059143;28;20094;-75
2023/09/01 11:39:11;;;;;;;15.20;13.60;;;18.60;99.90;;;;;;5047996;28;20041;-75
2023/09/01 11:41:38;;;;;;;13.90;12.32;;;18.60;99.90;;;;;;5059616;28;20044;-75
2023/09/01 11:44:04;;;;;;;12.93;11.55;;;18.70;99.90;;;;;;5045053;28;20045;-74
2023/09/01 11:46:36;;;;;;;14.52;11.02;;;18.60;99.90;;;;;;5044687;28;20048;-75
2023/09/01 11:49:03;;;;;;;14.18;12.68;;;18.60;99.90;;;;;;5054668;28;20041;-74
2023/09/01 11:51:48;;;;;;;15.10;13.60;;;18.60;99.90;;;;;;5053317;28;20074;-75
2023/09/01 11:54:14;;;;;;;15.32;13.40;;;18.60;99.90;;;;;;5047630;28;20065;-74
2023/09/01 11:56:40;;;;;;;14.00;12.68;;;18.70;99.90;;;;;;5031897;28;20080;-74
2023/09/01 11:59:06;;;;;;;13.68;12.18;;;18.70;99.90;;;;;;5052230;28;20040;-75
2023/09/01 12:01:41;;;;;;;12.10;10.68;;;18.70;99.90;;;;;;5051630;28;20052;-75
2023/09/01 12:04:11;;;;;;;12.43;10.02;;;18.80;99.90;;;;;;5042494;28;20494;-75
2023/09/01 12:06:44;;;;;;;11.70;10.10;;;18.90;99.90;;;;;;5056011;28;20055;-75
2023/09/01 12:09:16;;;;;;;16.25;11.45;;;18.90;99.90;;;;;;5045670;28;20851;-75
2023/09/01 12:11:56;;;;;;;11.73;10.25;;;19.00;99.90;;;;;;5048059;28;20048;-74
2023/09/01 12:14:23;;;;;;;;;;;19.00;99.90;;;;;;5051137;28;20120;-75
2023/09/01 12:16:53;;;;;;;13.25;10.48;;;19.00;99.90;;;;;;5052467;28;19926;-74
2023/09/01 12:19:25;;;;;;;;;;;19.00;99.90;;;;;;5047705;28;20502;-75
2023/09/01 12:21:52;;;;;;;10.18;8.25;;;19.00;99.90;;;;;;5060698;28;19928;-74
2023/09/01 12:24:18;;;;;;;10.82;7.38;;;19.00;99.90;;;;;;5047757;28;20056;-75
2023/09/01 12:26:44;;;;;;;10.40;7.35;;;19.10;99.90;;;;;;5036064;28;20159;-75
2023/09/01 12:29:10;;;;;;;10.27;7.00;;;19.10;99.90;;;;;;5054982;28;20064;-75
2023/09/01 12:31:36;;;;;;;11.73;7.07;;;19.20;99.90;;;;;;5058268;28;20045;-75
2023/09/01 12:34:02;;;;;;;12.90;7.57;;;19.30;99.90;;;;;;5037548;28;20474;-75
2023/09/01 12:36:27;;;;;;;10.70;6.93;;;19.40;99.90;;;;;;5046953;28;20044;-75
2023/09/01 12:38:53;;;;;;;10.30;7.68;;;19.50;99.90;;;;;;5043938;28;20033;-75
2023/09/01 12:41:22;;;;;;;10.10;7.35;;;19.50;99.90;;;;;;5054705;28;20442;-75
2023/09/01 12:43:48;;;;;;;10.45;6.85;;;19.50;99.90;;;;;;5049798;28;20044;-75